Latest Weather Observations for Dubbo

IDN60801

Issued at 11:03 am EST Wednesday 21 April 2021 (issued every 10 minutes, with the page automatically refreshed every 10 minutes)

About weather observations | Map of weather stations | Latest weather observations for NSW | Other Formats
Station Details ID: 065070 Name: DUBBO AIRPORT AWS Lat: -32.22 Lon: 148.58 Height: 284.0 m
Data from the previous 72 hours. | See also: Recent months at Dubbo
Date/Time
EST
Temp
°C
App
Temp
°C
Dew
Point
°C
Rel
Hum
%
Delta-T
°C
Wind Press
QNH
hPa
Press
MSL
hPa
Rain since
9am
mm
Dir  Spd
km/h
Gust
km/h
Spd
kts
Gust
kts
21/11:00am 14.9 11.3 4.9 51 4.8 SSW 13 20 7 11 1016.9 1016.2 0.0
21/10:30am 14.2 9.4 4.8 53 4.4 SW 19 26 10 14 1017.3 1016.6 0.0
21/10:00am 13.6 9.4 5.5 58 3.9 S 17 22 9 12 1017.3 1016.6 0.0
21/09:30am 13.1 8.9 5.8 61 3.5 S 17 28 9 15 1017.3 1016.6 0.0
21/09:00am 11.9 7.2 6.0 67 2.8 SSW 20 30 11 16 1017.5 1016.8 0.0
21/08:30am 11.2 7.8 7.5 78 1.8 SSW 15 24 8 13 1017.4 1016.7 0.0
21/08:00am 9.8 5.3 7.1 83 1.3 SSW 20 26 11 14 1016.9 1016.2 0.0
21/07:30am 9.4 6.0 7.5 88 0.9 SW 15 22 8 12 1016.4 1015.7 0.0
21/07:00am 8.0 5.2 7.1 94 0.4 SW 11 15 6 8 1016.0 1015.3 0.0
21/06:30am 6.5 3.1 5.8 95 0.3 SW 13 15 7 8 1015.3 1014.6 0.0
21/06:18am 6.3 3.6 5.6 95 0.3 SW 9 13 5 7 1015.1 1014.4 0.0
21/06:02am 4.9 3.1 3.6 91 0.6 NNE 2 6 1 3 1014.9 1014.2 0.0
21/06:00am 4.8 2.6 3.5 91 0.5 NNE 4 7 2 4 1014.9 1014.2 0.0
21/05:30am 5.6 4.2 3.8 88 0.8 CALM 0 0 0 0 1014.6 1013.9 0.0
21/05:00am 7.7 5.5 6.2 90 0.7 SW 7 11 4 6 1014.3 1013.6 0.0
21/04:30am 7.5 4.7 5.3 86 1.0 WSW 9 11 5 6 1014.0 1013.3 0.0
21/04:00am 8.2 5.4 5.3 82 1.3 WSW 9 13 5 7 1013.6 1012.9 0.0
21/03:30am 9.3 6.4 6.4 82 1.4 SW 11 15 6 8 1013.7 1013.0 0.0
21/03:00am 8.6 5.9 5.5 81 1.4 WSW 9 13 5 7 1013.7 1013.0 0.0
21/02:30am 8.2 4.9 4.6 78 1.6 SW 11 15 6 8 1013.6 1012.9 0.0
21/02:00am 7.5 3.6 3.6 76 1.7 WSW 13 13 7 7 1013.7 1013.0 0.0
21/01:30am 8.5 4.1 4.7 77 1.7 WSW 17 24 9 13 1013.7 1013.0 0.0
21/01:00am 8.4 6.3 3.8 73 2.0 NW 4 7 2 4 1013.1 1012.4 0.0
21/12:30am 9.4 7.0 4.2 70 2.3 NW 6 7 3 4 1013.2 1012.5 0.0
21/12:00am 9.0 6.3 3.6 69 2.4 WNW 7 7 4 4 1013.6 1012.9 0.0
 
Date/Time
EST
Temp
°C
App
Temp
°C
Dew
Point
°C
Rel
Hum
%
Delta-T
°C
Wind Press
QNH
hPa
Press
MSL
hPa
Rain since
9am
mm
Dir  Spd
km/h
Gust
km/h
Spd
kts
Gust
kts
20/11:30pm 10.7 8.1 4.2 64 2.9 WNW 7 7 4 4 1013.7 1013.0 0.0
20/11:00pm 10.7 8.1 4.4 65 2.9 WNW 7 9 4 5 1013.9 1013.2 0.0
20/10:30pm 10.5 8.2 4.9 68 2.6 W 6 7 3 4 1014.0 1013.3 0.0
20/10:00pm 8.8 7.1 3.8 71 2.2 WNW 2 6 1 3 1014.3 1013.6 0.0
20/09:30pm 10.4 9.1 4.3 66 2.8 CALM 0 2 0 1 1014.3 1013.6 0.0
20/09:00pm 9.8 7.3 4.0 67 2.6 N 6 9 3 5 1014.3 1013.6 0.0
20/08:30pm 10.0 7.2 3.1 62 3.0 N 7 11 4 6 1014.4 1013.7 0.0
20/08:00pm 12.2 10.8 3.7 56 3.9 CALM 0 0 0 0 1014.2 1013.5 0.0
20/07:30pm 11.9 9.2 2.4 52 4.2 WSW 6 9 3 5 1014.1 1013.4 0.0
20/07:00pm 14.8 12.0 3.3 46 5.3 W 7 9 4 5 1013.9 1013.2 0.0
20/06:30pm 16.7 13.2 3.4 41 6.2 NW 11 13 6 7 1013.7 1013.0 0.0
20/06:00pm 16.7 13.1 3.1 40 6.3 W 11 13 6 7 1013.8 1013.1 0.0
20/05:30pm 19.0 15.4 3.2 35 7.5 NW 11 15 6 8 1013.6 1012.9 0.0
20/05:00pm 20.2 15.2 3.4 33 8.1 NW 19 24 10 13 1013.4 1012.7 0.0
20/04:30pm 20.9 15.5 2.7 30 8.7 NW 20 28 11 15 1013.2 1012.5 0.0
20/04:00pm 21.5 15.8 2.7 29 9.0 NW 22 28 12 15 1013.2 1012.5 0.0
20/03:30pm 22.5 16.6 1.5 25 9.9 WNW 22 32 12 17 1013.3 1012.6 0.0
20/03:00pm 22.2 16.6 1.3 25 9.8 NW 20 30 11 16 1013.7 1013.0 0.0
20/02:30pm 22.3 16.5 2.4 27 9.5 NW 22 32 12 17 1014.0 1013.3 0.0
20/02:00pm 22.6 17.3 3.2 28 9.4 WNW 20 33 11 18 1014.1 1013.4 0.0
20/01:30pm 22.6 16.4 2.1 26 9.8 NW 24 32 13 17 1014.6 1013.9 0.0
20/01:00pm 22.4 17.5 4.9 32 8.8 NW 20 30 11 16 1015.0 1014.3 0.0
20/12:30pm 21.7 16.5 3.4 30 8.9 NNW 20 28 11 15 1015.8 1015.1 0.0
20/12:00pm 22.0 17.9 4.6 32 8.7 NNW 15 28 8 15 1016.5 1015.8 0.0
20/11:30am 20.8 17.5 4.8 35 7.9 NNW 11 19 6 10 1017.1 1016.4 0.0
20/11:00am 20.0 17.2 5.3 38 7.3 NNW 9 15 5 8 1017.4 1016.7 0.0
20/10:30am 19.0 17.0 7.1 46 6.1 N 7 9 4 5 1017.8 1017.1 0.0
20/10:00am 17.2 15.1 6.7 50 5.3 ENE 7 11 4 6 1018.3 1017.6 0.0
20/09:30am 13.8 11.4 5.4 57 4.0 ESE 7 9 4 5 1018.5 1017.8 0.0
20/09:00am 11.8 9.0 5.2 64 3.1 SE 9 15 5 8 1018.7 1018.0 0.0
20/08:30am 9.0 5.8 5.0 76 1.8 ESE 11 15 6 8 1018.7 1018.0 0.0
20/08:00am 8.0 5.4 6.0 87 0.9 SE 9 11 5 6 1019.0 1018.4 0.0
20/07:30am 6.1 3.3 5.2 94 0.4 SE 9 13 5 7 1018.7 1018.0 0.0
20/07:00am 4.0 0.9 3.6 97 0.2 SE 9 11 5 6 1018.6 1017.9 0.0
20/06:30am 3.0 -0.7 2.6 97 0.2 SE 11 13 6 7 1018.2 1017.5 0.0
20/06:00am 1.8 -1.4 0.9 94 0.3 ESE 7 9 4 5 1017.9 1017.2 0.0
20/05:30am 2.2 -1.3 1.3 94 0.3 E 9 11 5 6 1017.9 1017.2 0.0
20/05:00am 2.5 -0.6 1.5 93 0.4 ESE 7 9 4 5 1017.7 1017.0 0.0
20/04:30am 3.4 0.1 2.5 94 0.4 SE 9 11 5 6 1017.6 1016.9 0.0
20/04:00am 4.0 0.0 2.8 92 0.5 SE 13 15 7 8 1017.5 1016.8 0.0
20/03:30am 3.9 0.7 2.9 93 0.4 SSE 9 11 5 6 1017.6 1016.9 0.0
20/03:00am 2.9 -0.5 1.7 92 0.5 SSE 9 11 5 6 1017.5 1016.8 0.0
20/02:30am 3.2 0.2 2.0 92 0.5 ESE 7 7 4 4 1017.5 1016.8 0.0
20/02:00am 2.7 -0.4 1.4 91 0.5 ENE 7 11 4 6 1017.6 1016.9 0.0
20/01:30am 3.3 -0.1 2.0 91 0.5 ENE 9 11 5 6 1017.6 1016.9 0.0
20/01:00am 3.7 0.4 2.4 91 0.5 E 9 11 5 6 1017.8 1017.1 0.0
20/12:30am 4.4 1.0 2.1 85 0.9 ESE 9 11 5 6 1017.8 1017.1 0.0
20/12:00am 6.2 2.8 3.9 85 1.0 SE 11 13 6 7 1017.8 1017.1 0.0
 
Date/Time
EST
Temp
°C
App
Temp
°C
Dew
Point
°C
Rel
Hum
%
Delta-T
°C
Wind Press
QNH
hPa
Press
MSL
hPa
Rain since
9am
mm
Dir  Spd
km/h
Gust
km/h
Spd
kts
Gust
kts
19/11:30pm 6.0 3.5 4.0 87 0.9 E 6 7 3 4 1017.9 1017.2 0.0
19/11:00pm 6.7 4.3 4.5 86 1.0 E 6 7 3 4 1018.2 1017.5 0.0
19/10:30pm 7.0 4.4 3.1 76 1.7 E 6 7 3 4 1018.2 1017.5 0.0
19/10:00pm 6.9 4.1 3.2 77 1.6 E 7 9 4 5 1018.2 1017.5 0.0
19/09:44pm 7.7 5.5 3.4 74 1.9 E 4 11 2 6 1018.3 1017.6 0.0
19/09:30pm 8.2 6.8 3.3 71 2.1 CALM 0 0 0 0 1018.2 1017.5 0.0
19/09:19pm 7.7 6.2 2.8 71 2.1 CALM 0 0 0 0 1018.2 1017.5 0.0
19/09:00pm 9.6 8.2 3.4 65 2.7 CALM 0 0 0 0 1018.2 1017.5 0.0
19/08:30pm 9.8 8.4 3.8 66 2.7 CALM 0 0 0 0 1018.1 1017.4 0.0
19/08:00pm 9.7 8.1 2.3 60 3.2 CALM 0 0 0 0 1018.0 1017.3 0.0
19/07:30pm 11.8 9.2 3.3 56 3.8 SW 6 7 3 4 1018.0 1017.3 0.0
19/07:00pm 12.3 9.1 3.3 54 4.0 SSW 9 9 5 5 1017.8 1017.1 0.0
19/06:30pm 11.4 8.5 2.4 54 3.9 SW 7 7 4 4 1017.4 1016.7 0.0
19/06:00pm 14.0 10.8 1.0 41 5.6 SW 7 9 4 5 1017.2 1016.5 0.0
19/05:30pm 17.0 13.7 0.2 32 7.4 WSW 7 9 4 5 1016.9 1016.2 0.0
19/05:00pm 19.9 15.4 -0.1 26 8.9 W 13 15 7 8 1016.9 1016.2 0.0
19/04:30pm 21.0 16.6 0.2 25 9.4 W 13 17 7 9 1016.8 1016.1 0.0
19/04:00pm 21.4 16.7 0.6 25 9.5 W 15 32 8 17 1016.7 1016.0 0.0
19/03:30pm 21.7 17.4 0.8 25 9.7 NW 13 20 7 11 1016.7 1016.0 0.0
19/03:00pm 22.3 18.8 1.3 25 9.8 WNW 9 19 5 10 1016.9 1016.2 0.0
19/02:30pm 21.6 17.0 1.3 26 9.5 WNW 15 22 8 12 1017.2 1016.5 0.0
19/02:00pm 21.5 16.1 1.2 26 9.4 W 19 28 10 15 1017.4 1016.7 0.0
19/01:30pm 21.5 16.9 1.7 27 9.3 WNW 15 24 8 13 1017.6 1016.9 0.0
19/01:00pm 21.1 16.7 2.9 30 8.7 WNW 15 26 8 14 1018.1 1017.4 0.0
19/12:30pm 20.8 16.4 2.6 30 8.6 W 15 20 8 11 1018.6 1017.9 0.0
19/12:00pm 20.2 16.5 2.5 31 8.3 W 11 22 6 12 1019.2 1018.6 0.0
19/11:30am 19.9 15.4 2.3 31 8.3 NW 15 22 8 12 1019.7 1019.0 0.0
19/11:00am 19.5 16.5 1.9 31 8.1 NW 7 17 4 9 1020.2 1019.5 0.0
19/10:30am 18.5 17.1 5.4 42 6.5 ESE 2 9 1 5 1020.5 1019.8 0.0
19/10:00am 16.9 14.9 6.4 50 5.2 ENE 6 9 3 5 1020.7 1020.0 0.0
19/09:30am 13.8 11.5 5.7 58 3.9 ESE 7 11 4 6 1020.7 1020.0 0.0
19/09:00am 12.0 9.8 6.1 67 2.8 E 7 9 4 5 1021.0 1020.3 0.0
19/08:30am 9.8 7.6 6.2 78 1.7 E 7 9 4 5 1020.9 1020.2 0.0
19/08:00am 7.1 4.2 4.6 84 1.1 SE 9 11 5 6 1020.8 1020.1 0.0
19/07:30am 5.1 1.7 4.1 93 0.4 ESE 11 13 6 7 1020.7 1020.0 0.0
19/07:00am 2.6 -0.4 1.9 95 0.3 ESE 7 9 4 5 1020.6 1019.9 0.0
19/06:30am 1.5 -1.6 0.3 92 0.5 ESE 6 7 3 4 1020.4 1019.7 0.0
19/06:00am 2.1 -1.1 0.8 91 0.5 SE 7 9 4 5 1020.1 1019.4 0.0
19/05:30am 3.3 0.9 2.1 92 0.5 SE 4 7 2 4 1020.1 1019.4 0.0
19/05:00am 3.1 0.1 1.8 91 0.5 ESE 7 9 4 5 1020.0 1019.3 0.0
19/04:30am 3.5 0.7 2.3 92 0.5 SSE 6 9 3 5 1019.9 1019.2 0.0
19/04:00am 3.8 0.5 2.3 90 0.6 SE 9 13 5 7 1019.8 1019.1 0.0
19/03:30am 4.3 1.1 3.0 91 0.5 SE 9 9 5 5 1019.8 1019.1 0.0
19/03:00am 3.9 1.0 2.7 92 0.5 ESE 7 9 4 5 1019.8 1019.1 0.0
19/02:30am 4.6 1.9 3.7 94 0.4 ESE 7 7 4 4 1019.9 1019.2 0.0
19/02:00am 3.4 0.4 1.8 89 0.6 ESE 7 9 4 5 1020.0 1019.3 0.0
19/01:30am 3.9 0.9 1.9 87 0.8 SE 7 9 4 5 1020.2 1019.5 0.0
19/01:00am 5.9 3.1 3.2 83 1.1 SE 7 7 4 4 1020.3 1019.6 0.0
19/12:30am 5.6 2.4 3.3 85 1.0 SE 9 9 5 5 1020.3 1019.6 0.0
19/12:00am 5.1 1.8 2.6 84 1.0 SE 9 11 5 6 1020.3 1019.6 0.0
 
Date/Time
EST
Temp
°C
App
Temp
°C
Dew
Point
°C
Rel
Hum
%
Delta-T
°C
Wind Press
QNH
hPa
Press
MSL
hPa
Rain since
9am
mm
Dir  Spd
km/h
Gust
km/h
Spd
kts
Gust
kts
18/11:30pm 7.0 5.6 3.6 79 1.5 CALM 0 0 0 0 1020.6 1019.9 0.0
18/11:00pm 7.0 5.6 3.4 78 1.5 CALM 0 0 0 0 1020.6 1019.9 0.0
18/10:30pm 6.3 4.3 2.4 76 1.6 S 2 6 1 3 1020.9 1020.2 0.0
18/10:00pm 8.6 6.2 4.4 75 1.9 SSE 6 7 3 4 1021.0 1020.3 0.0
18/09:30pm 8.2 6.8 3.7 73 2.0 CALM 0 0 0 0 1020.9 1020.2 0.0
18/09:05pm 9.4 8.0 3.8 68 2.5 CALM 0 0 0 0 1020.9 1020.2 0.0
18/09:00pm 10.1 8.9 4.7 69 2.5 CALM 0 0 0 0 1020.8 1020.1 0.0
18/08:43pm 9.3 7.9 3.7 68 2.5 CALM 0 0 0 0 1020.9 1020.2 0.0
18/08:30pm 10.6 9.5 4.9 68 2.6 CALM 0 6 0 3 1020.9 1020.2 0.0
18/08:00pm 10.4 7.6 3.4 62 3.1 NE 7 9 4 5 1020.7 1020.0 0.0
18/07:52pm 10.3 7.6 2.7 59 3.3 E 6 9 3 5 1020.6 1019.9 0.0
18/07:30pm 11.6 9.3 2.9 55 3.9 SSW 4 7 2 4 1020.5 1019.8 0.0
18/07:18pm 12.4 9.2 3.1 53 4.2 SSW 9 15 5 8 1020.5 1019.8 0.0
18/07:00pm 13.9 10.0 3.4 49 4.8 SW 13 15 7 8 1020.3 1019.6 0.0
18/06:30pm 12.9 10.0 4.8 58 3.8 SSW 9 11 5 6 1020.0 1019.3 0.0
18/06:00pm 15.2 12.4 5.1 51 4.8 WSW 9 11 5 6 1019.8 1019.1 0.0
18/05:30pm 17.8 15.3 4.7 42 6.3 W 7 11 4 6 1019.3 1018.7 0.0
18/05:00pm 20.1 17.3 5.0 37 7.5 WNW 9 13 5 7 1019.1 1018.5 0.0
18/04:30pm 20.1 17.6 5.0 37 7.5 SE 7 13 4 7 1019.0 1018.4 0.0
18/04:00pm 21.1 18.3 5.1 35 8.0 SSE 9 17 5 9 1019.0 1018.4 0.0
18/03:30pm 20.6 17.6 4.2 34 8.0 SSW 9 15 5 8 1019.2 1018.6 0.0
18/03:00pm 21.7 19.2 3.9 31 8.7 SE 6 9 3 5 1019.3 1018.7 0.0
18/02:30pm 20.3 16.6 2.6 31 8.4 S 11 17 6 9 1019.7 1019.0 0.0
18/02:00pm 21.1 17.8 4.6 34 8.1 WNW 11 19 6 10 1019.9 1019.2 0.0
18/01:30pm 19.6 16.1 3.7 35 7.6 SSW 11 15 6 8 1020.3 1019.6 0.0
18/01:00pm 19.8 17.0 5.1 38 7.3 WSW 9 17 5 9 1020.7 1020.0 0.0
18/12:30pm 19.6 17.9 8.3 48 5.9 SSW 7 13 4 7 1021.3 1020.6 0.0
18/12:00pm 18.4 16.7 9.7 57 4.6 S 9 13 5 7 1021.9 1021.2 0.0
18/11:30am 17.4 16.9 10.8 65 3.6 SSE 4 11 2 6 1022.5 1021.9 0.0

Other formats

Comma delimited format used in spreadsheet applications
http://www.bom.gov.au/fwo/IDN60801/IDN60801.95719.axf

JavaScript Object Notation format (JSON) in row-major order
http://www.bom.gov.au/fwo/IDN60801/IDN60801.95719.json

Data quality

Most of these data are generated automatically and are frequently updated. Quality checks on data are not normally performed. It is possible for incorrect values to appear. Refer to information at About Latest Weather Observations and please check the disclaimer before using these data.